sensor_id;sensor_type;location;lat;lon;timestamp;temperature;humidity
3275;DHT22;1649;53.672;10.064;2022-12-18T00:03:52;-4.90;99.90
3275;DHT22;1649;53.672;10.064;2022-12-18T00:06:19;-4.90;99.90
3275;DHT22;1649;53.672;10.064;2022-12-18T00:08:45;-4.90;99.90
3275;DHT22;1649;53.672;10.064;2022-12-18T00:11:13;-4.90;99.90
3275;DHT22;1649;53.672;10.064;2022-12-18T00:13:39;-4.90;99.90
3275;DHT22;1649;53.672;10.064;2022-12-18T00:16:07;-5.00;99.90
3275;DHT22;1649;53.672;10.064;2022-12-18T00:18:34;-5.00;99.90
3275;DHT22;1649;53.672;10.064;2022-12-18T00:21:04;-5.00;99.90
3275;DHT22;1649;53.672;10.064;2022-12-18T00:23:31;-5.00;99.90
3275;DHT22;1649;53.672;10.064;2022-12-18T00:26:01;-5.00;99.90
3275;DHT22;1649;53.672;10.064;2022-12-18T00:28:27;-5.00;99.90
3275;DHT22;1649;53.672;10.064;2022-12-18T00:31:07;-5.10;99.90
3275;DHT22;1649;53.672;10.064;2022-12-18T00:33:34;-5.10;99.90
3275;DHT22;1649;53.672;10.064;2022-12-18T00:36:20;-5.10;99.90
3275;DHT22;1649;53.672;10.064;2022-12-18T00:38:47;-5.10;99.90
3275;DHT22;1649;53.672;10.064;2022-12-18T00:41:14;-5.10;99.90
3275;DHT22;1649;53.672;10.064;2022-12-18T00:44:00;-5.10;99.90
3275;DHT22;1649;53.672;10.064;2022-12-18T00:46:26;-5.20;99.90
3275;DHT22;1649;53.672;10.064;2022-12-18T00:48:51;-5.20;99.90
3275;DHT22;1649;53.672;10.064;2022-12-18T00:51:17;-5.20;99.90
3275;DHT22;1649;53.672;10.064;2022-12-18T00:53:42;-5.20;99.90
3275;DHT22;1649;53.672;10.064;2022-12-18T00:56:08;-5.20;99.90
3275;DHT22;1649;53.672;10.064;2022-12-18T00:58:33;-5.20;99.90
3275;DHT22;1649;53.672;10.064;2022-12-18T01:00:59;-5.30;99.90
3275;DHT22;1649;53.672;10.064;2022-12-18T01:03:24;-5.30;99.90
3275;DHT22;1649;53.672;10.064;2022-12-18T01:05:50;-5.30;99.90
3275;DHT22;1649;53.672;10.064;2022-12-18T01:08:15;-5.30;99.90
3275;DHT22;1649;53.672;10.064;2022-12-18T01:10:41;-5.30;99.90
3275;DHT22;1649;53.672;10.064;2022-12-18T01:13:06;-5.30;99.90
3275;DHT22;1649;53.672;10.064;2022-12-18T01:15:32;-5.30;99.90
3275;DHT22;1649;53.672;10.064;2022-12-18T01:17:57;-5.30;99.90
3275;DHT22;1649;53.672;10.064;2022-12-18T01:20:23;-5.30;99.90
3275;DHT22;1649;53.672;10.064;2022-12-18T01:22:48;-5.30;99.90
3275;DHT22;1649;53.672;10.064;2022-12-18T01:25:14;-5.30;99.90
3275;DHT22;1649;53.672;10.064;2022-12-18T01:27:39;-5.40;99.90
3275;DHT22;1649;53.672;10.064;2022-12-18T01:30:05;-5.40;99.90
3275;DHT22;1649;53.672;10.064;2022-12-18T01:32:32;-5.50;99.90
3275;DHT22;1649;53.672;10.064;2022-12-18T01:34:57;-5.50;99.90
3275;DHT22;1649;53.672;10.064;2022-12-18T01:37:23;-5.50;99.90
3275;DHT22;1649;53.672;10.064;2022-12-18T01:39:48;-5.50;99.90
3275;DHT22;1649;53.672;10.064;2022-12-18T01:42:16;-5.50;99.90
3275;DHT22;1649;53.672;10.064;2022-12-18T01:45:01;-5.50;99.90
3275;DHT22;1649;53.672;10.064;2022-12-18T01:49:57;-5.50;99.90
3275;DHT22;1649;53.672;10.064;2022-12-18T01:52:26;-5.50;99.90
3275;DHT22;1649;53.672;10.064;2022-12-18T01:54:53;-5.50;99.90
3275;DHT22;1649;53.672;10.064;2022-12-18T01:57:19;-5.60;99.90
3275;DHT22;1649;53.672;10.064;2022-12-18T01:59:47;-5.60;99.90
3275;DHT22;1649;53.672;10.064;2022-12-18T02:02:15;-5.50;99.90
3275;DHT22;1649;53.672;10.064;2022-12-18T02:04:42;-5.60;99.90
3275;DHT22;1649;53.672;10.064;2022-12-18T02:07:20;-5.60;99.90
3275;DHT22;1649;53.672;10.064;2022-12-18T02:10:05;-5.60;99.90
3275;DHT22;1649;53.672;10.064;2022-12-18T02:12:45;-5.60;99.90
3275;DHT22;1649;53.672;10.064;2022-12-18T02:15:19;-5.60;99.90
3275;DHT22;1649;53.672;10.064;2022-12-18T02:17:54;-5.60;99.90
3275;DHT22;1649;53.672;10.064;2022-12-18T02:20:32;-5.60;99.90
3275;DHT22;1649;53.672;10.064;2022-12-18T02:23:24;-5.60;99.90
3275;DHT22;1649;53.672;10.064;2022-12-18T02:28:42;-5.60;99.90
3275;DHT22;1649;53.672;10.064;2022-12-18T02:31:13;-5.60;99.90
3275;DHT22;1649;53.672;10.064;2022-12-18T02:33:40;-5.60;99.90
3275;DHT22;1649;53.672;10.064;2022-12-18T02:36:08;-5.60;99.90
3275;DHT22;1649;53.672;10.064;2022-12-18T02:38:34;-5.70;99.90
3275;DHT22;1649;53.672;10.064;2022-12-18T02:41:02;-5.70;99.90
3275;DHT22;1649;53.672;10.064;2022-12-18T02:43:29;-5.70;99.90
3275;DHT22;1649;53.672;10.064;2022-12-18T02:45:59;-5.70;99.90
3275;DHT22;1649;53.672;10.064;2022-12-18T02:48:33;-5.70;99.90
3275;DHT22;1649;53.672;10.064;2022-12-18T02:51:05;-5.70;99.90
3275;DHT22;1649;53.672;10.064;2022-12-18T02:53:38;-5.70;99.90
3275;DHT22;1649;53.672;10.064;2022-12-18T02:56:28;-5.80;99.90
3275;DHT22;1649;53.672;10.064;2022-12-18T02:59:04;-5.80;99.90
3275;DHT22;1649;53.672;10.064;2022-12-18T03:04:04;-5.80;99.90
3275;DHT22;1649;53.672;10.064;2022-12-18T03:06:43;-5.70;99.90
3275;DHT22;1649;53.672;10.064;2022-12-18T03:09:14;-5.80;99.90
3275;DHT22;1649;53.672;10.064;2022-12-18T03:11:46;-5.80;99.90
3275;DHT22;1649;53.672;10.064;2022-12-18T03:14:34;-5.80;99.90
3275;DHT22;1649;53.672;10.064;2022-12-18T03:17:05;-5.90;99.90
3275;DHT22;1649;53.672;10.064;2022-12-18T03:19:32;-5.90;99.90
3275;DHT22;1649;53.672;10.064;2022-12-18T03:22:02;-5.90;99.90
3275;DHT22;1649;53.672;10.064;2022-12-18T03:24:29;-5.90;99.90
3275;DHT22;1649;53.672;10.064;2022-12-18T03:27:00;-5.90;99.90
3275;DHT22;1649;53.672;10.064;2022-12-18T03:29:38;-5.90;99.90
3275;DHT22;1649;53.672;10.064;2022-12-18T03:32:09;-5.80;99.90
3275;DHT22;1649;53.672;10.064;2022-12-18T03:34:38;-5.80;99.90
3275;DHT22;1649;53.672;10.064;2022-12-18T03:37:05;-5.90;99.90
3275;DHT22;1649;53.672;10.064;2022-12-18T03:39:31;-5.90;99.90
3275;DHT22;1649;53.672;10.064;2022-12-18T03:47:36;-6.00;99.90
3275;DHT22;1649;53.672;10.064;2022-12-18T03:50:13;-5.90;99.90
3275;DHT22;1649;53.672;10.064;2022-12-18T03:53:21;-6.00;99.90
3275;DHT22;1649;53.672;10.064;2022-12-18T03:55:50;-6.00;99.90
3275;DHT22;1649;53.672;10.064;2022-12-18T03:58:18;-6.00;99.90
3275;DHT22;1649;53.672;10.064;2022-12-18T04:00:45;-6.00;99.90
3275;DHT22;1649;53.672;10.064;2022-12-18T04:03:12;-5.90;99.90
3275;DHT22;1649;53.672;10.064;2022-12-18T04:05:39;-6.00;99.90
3275;DHT22;1649;53.672;10.064;2022-12-18T04:08:06;-6.00;99.90
3275;DHT22;1649;53.672;10.064;2022-12-18T04:10:31;-6.00;99.90
3275;DHT22;1649;53.672;10.064;2022-12-18T04:12:57;-6.00;99.90
3275;DHT22;1649;53.672;10.064;2022-12-18T04:15:23;-6.00;99.90
3275;DHT22;1649;53.672;10.064;2022-12-18T04:17:50;-6.10;99.90
3275;DHT22;1649;53.672;10.064;2022-12-18T04:20:16;-6.10;99.90
3275;DHT22;1649;53.672;10.064;2022-12-18T04:22:41;-6.10;99.90
3275;DHT22;1649;53.672;10.064;2022-12-18T04:25:08;-6.10;99.90
3275;DHT22;1649;53.672;10.064;2022-12-18T04:27:33;-6.10;99.90
3275;DHT22;1649;53.672;10.064;2022-12-18T04:29:59;-6.10;99.90
3275;DHT22;1649;53.672;10.064;2022-12-18T04:32:25;-6.10;99.90
3275;DHT22;1649;53.672;10.064;2022-12-18T04:34:50;-6.20;99.90
3275;DHT22;1649;53.672;10.064;2022-12-18T04:37:16;-6.20;99.90
3275;DHT22;1649;53.672;10.064;2022-12-18T04:39:41;-6.20;99.90
3275;DHT22;1649;53.672;10.064;2022-12-18T04:42:07;-6.20;99.90
3275;DHT22;1649;53.672;10.064;2022-12-18T04:44:32;-6.20;99.90
3275;DHT22;1649;53.672;10.064;2022-12-18T04:46:58;-6.20;99.90
3275;DHT22;1649;53.672;10.064;2022-12-18T04:49:23;-6.20;99.90
3275;DHT22;1649;53.672;10.064;2022-12-18T04:51:49;-6.20;99.90
3275;DHT22;1649;53.672;10.064;2022-12-18T04:54:14;-6.30;99.90
3275;DHT22;1649;53.672;10.064;2022-12-18T04:56:40;-6.30;99.90
3275;DHT22;1649;53.672;10.064;2022-12-18T04:59:05;-6.30;99.90
3275;DHT22;1649;53.672;10.064;2022-12-18T05:01:34;-6.30;99.90
3275;DHT22;1649;53.672;10.064;2022-12-18T05:03:59;-6.30;99.90
3275;DHT22;1649;53.672;10.064;2022-12-18T05:06:25;-6.20;99.90
3275;DHT22;1649;53.672;10.064;2022-12-18T05:08:50;-6.20;99.90
3275;DHT22;1649;53.672;10.064;2022-12-18T05:11:16;-6.20;99.90
3275;DHT22;1649;53.672;10.064;2022-12-18T05:13:43;-6.20;99.90
3275;DHT22;1649;53.672;10.064;2022-12-18T05:16:09;-6.30;99.90
3275;DHT22;1649;53.672;10.064;2022-12-18T05:18:35;-6.20;99.90
3275;DHT22;1649;53.672;10.064;2022-12-18T05:21:01;-6.20;99.90
3275;DHT22;1649;53.672;10.064;2022-12-18T05:23:27;-6.20;99.90
3275;DHT22;1649;53.672;10.064;2022-12-18T05:25:57;-6.30;99.90
3275;DHT22;1649;53.672;10.064;2022-12-18T05:28:24;-6.30;99.90
3275;DHT22;1649;53.672;10.064;2022-12-18T05:30:52;-6.30;99.90
3275;DHT22;1649;53.672;10.064;2022-12-18T05:33:19;-6.40;99.90
3275;DHT22;1649;53.672;10.064;2022-12-18T05:35:49;-6.30;99.90
3275;DHT22;1649;53.672;10.064;2022-12-18T05:38:15;-6.40;99.90
3275;DHT22;1649;53.672;10.064;2022-12-18T05:40:42;-6.40;99.90
3275;DHT22;1649;53.672;10.064;2022-12-18T05:43:09;-6.40;99.90
3275;DHT22;1649;53.672;10.064;2022-12-18T05:45:37;-6.40;99.90
3275;DHT22;1649;53.672;10.064;2022-12-18T05:48:03;-6.40;99.90
3275;DHT22;1649;53.672;10.064;2022-12-18T05:50:29;-6.50;99.90
3275;DHT22;1649;53.672;10.064;2022-12-18T05:52:54;-6.50;99.90
3275;DHT22;1649;53.672;10.064;2022-12-18T05:55:20;-6.50;99.90
3275;DHT22;1649;53.672;10.064;2022-12-18T05:57:45;-6.40;99.90
3275;DHT22;1649;53.672;10.064;2022-12-18T06:00:11;-6.50;99.90
3275;DHT22;1649;53.672;10.064;2022-12-18T06:02:37;-6.50;99.90
3275;DHT22;1649;53.672;10.064;2022-12-18T06:05:02;-6.50;99.90
3275;DHT22;1649;53.672;10.064;2022-12-18T06:07:28;-6.50;99.90
3275;DHT22;1649;53.672;10.064;2022-12-18T06:09:53;-6.50;99.90
3275;DHT22;1649;53.672;10.064;2022-12-18T06:12:19;-6.50;99.90
3275;DHT22;1649;53.672;10.064;2022-12-18T06:14:44;-6.50;99.90
3275;DHT22;1649;53.672;10.064;2022-12-18T06:17:10;-6.60;99.90
3275;DHT22;1649;53.672;10.064;2022-12-18T06:19:36;-6.60;99.90
3275;DHT22;1649;53.672;10.064;2022-12-18T06:22:01;-6.60;99.90
3275;DHT22;1649;53.672;10.064;2022-12-18T06:24:27;-6.50;99.90
3275;DHT22;1649;53.672;10.064;2022-12-18T06:26:52;-6.60;99.90
3275;DHT22;1649;53.672;10.064;2022-12-18T06:29:18;-6.60;99.90
3275;DHT22;1649;53.672;10.064;2022-12-18T06:31:43;-6.60;99.90
3275;DHT22;1649;53.672;10.064;2022-12-18T06:34:09;-6.50;99.90
3275;DHT22;1649;53.672;10.064;2022-12-18T06:36:34;-6.60;99.90
3275;DHT22;1649;53.672;10.064;2022-12-18T06:39:00;-6.50;99.90
3275;DHT22;1649;53.672;10.064;2022-12-18T06:41:25;-6.50;99.90
3275;DHT22;1649;53.672;10.064;2022-12-18T06:43:51;-6.50;99.90
3275;DHT22;1649;53.672;10.064;2022-12-18T06:46:17;-6.50;99.90
3275;DHT22;1649;53.672;10.064;2022-12-18T06:48:42;-6.50;99.90
3275;DHT22;1649;53.672;10.064;2022-12-18T06:51:08;-6.50;99.90
3275;DHT22;1649;53.672;10.064;2022-12-18T06:53:33;-6.60;99.90
3275;DHT22;1649;53.672;10.064;2022-12-18T06:56:04;-6.50;99.90
3275;DHT22;1649;53.672;10.064;2022-12-18T06:58:30;-6.60;99.90
3275;DHT22;1649;53.672;10.064;2022-12-18T07:01:00;-6.60;99.90
3275;DHT22;1649;53.672;10.064;2022-12-18T07:03:26;-6.60;99.90
3275;DHT22;1649;53.672;10.064;2022-12-18T07:05:52;-6.50;99.90
3275;DHT22;1649;53.672;10.064;2022-12-18T07:08:17;-6.50;99.90
3275;DHT22;1649;53.672;10.064;2022-12-18T07:10:43;-6.60;99.90
3275;DHT22;1649;53.672;10.064;2022-12-18T07:13:09;-6.60;99.90
3275;DHT22;1649;53.672;10.064;2022-12-18T07:15:34;-6.60;99.90
3275;DHT22;1649;53.672;10.064;2022-12-18T07:18:00;-6.60;99.90
3275;DHT22;1649;53.672;10.064;2022-12-18T07:20:25;-6.50;99.90
3275;DHT22;1649;53.672;10.064;2022-12-18T07:22:51;-6.60;99.90
3275;DHT22;1649;53.672;10.064;2022-12-18T07:25:16;-6.50;99.90
3275;DHT22;1649;53.672;10.064;2022-12-18T07:27:42;-6.60;99.90
3275;DHT22;1649;53.672;10.064;2022-12-18T07:30:08;-6.50;99.90
3275;DHT22;1649;53.672;10.064;2022-12-18T07:32:34;-6.60;99.90
3275;DHT22;1649;53.672;10.064;2022-12-18T07:34:59;-6.60;99.90
3275;DHT22;1649;53.672;10.064;2022-12-18T07:37:25;-6.50;99.90
3275;DHT22;1649;53.672;10.064;2022-12-18T07:39:50;-6.50;99.90
3275;DHT22;1649;53.672;10.064;2022-12-18T07:42:16;-6.50;99.90
3275;DHT22;1649;53.672;10.064;2022-12-18T07:45:00;-6.50;99.90
3275;DHT22;1649;53.672;10.064;2022-12-18T07:47:26;-6.40;99.90
3275;DHT22;1649;53.672;10.064;2022-12-18T07:49:52;-6.40;99.90
3275;DHT22;1649;53.672;10.064;2022-12-18T07:52:17;-6.40;99.90
3275;DHT22;1649;53.672;10.064;2022-12-18T07:54:43;-6.40;99.90
3275;DHT22;1649;53.672;10.064;2022-12-18T07:57:09;-6.40;99.90
3275;DHT22;1649;53.672;10.064;2022-12-18T07:59:34;-6.40;99.90
3275;DHT22;1649;53.672;10.064;2022-12-18T08:02:00;-6.30;99.90
3275;DHT22;1649;53.672;10.064;2022-12-18T08:04:26;-6.30;99.90
3275;DHT22;1649;53.672;10.064;2022-12-18T08:06:51;-6.30;99.90
3275;DHT22;1649;53.672;10.064;2022-12-18T08:09:17;-6.20;99.90
3275;DHT22;1649;53.672;10.064;2022-12-18T08:11:43;-6.20;99.90
3275;DHT22;1649;53.672;10.064;2022-12-18T08:14:09;-6.20;99.90
3275;DHT22;1649;53.672;10.064;2022-12-18T08:16:35;-6.20;99.90
3275;DHT22;1649;53.672;10.064;2022-12-18T08:19:00;-6.20;99.90
3275;DHT22;1649;53.672;10.064;2022-12-18T08:21:28;-6.10;99.90
3275;DHT22;1649;53.672;10.064;2022-12-18T08:23:56;-6.10;99.90
3275;DHT22;1649;53.672;10.064;2022-12-18T08:26:22;-6.00;99.90
3275;DHT22;1649;53.672;10.064;2022-12-18T08:28:49;-5.90;99.90
3275;DHT22;1649;53.672;10.064;2022-12-18T08:31:14;-5.70;99.90
3275;DHT22;1649;53.672;10.064;2022-12-18T08:33:41;-5.40;99.90
3275;DHT22;1649;53.672;10.064;2022-12-18T08:36:07;-5.10;99.90
3275;DHT22;1649;53.672;10.064;2022-12-18T08:38:33;-4.60;99.90
3275;DHT22;1649;53.672;10.064;2022-12-18T08:41:00;-4.40;99.90
3275;DHT22;1649;53.672;10.064;2022-12-18T08:43:27;-4.30;99.90
3275;DHT22;1649;53.672;10.064;2022-12-18T08:46:11;-4.00;99.90
3275;DHT22;1649;53.672;10.064;2022-12-18T08:48:37;-3.90;99.90
3275;DHT22;1649;53.672;10.064;2022-12-18T08:51:02;-3.90;99.90
3275;DHT22;1649;53.672;10.064;2022-12-18T08:53:28;-3.70;99.90
3275;DHT22;1649;53.672;10.064;2022-12-18T08:55:54;-3.50;99.90
3275;DHT22;1649;53.672;10.064;2022-12-18T08:58:21;-3.50;99.90
3275;DHT22;1649;53.672;10.064;2022-12-18T09:00:46;-3.40;99.90
3275;DHT22;1649;53.672;10.064;2022-12-18T09:03:13;-3.20;99.90
3275;DHT22;1649;53.672;10.064;2022-12-18T09:05:39;-3.00;99.90
3275;DHT22;1649;53.672;10.064;2022-12-18T09:08:05;-2.80;99.90
3275;DHT22;1649;53.672;10.064;2022-12-18T09:10:31;-2.70;99.90
3275;DHT22;1649;53.672;10.064;2022-12-18T09:12:57;-2.60;99.90
3275;DHT22;1649;53.672;10.064;2022-12-18T09:15:22;-2.80;99.90
3275;DHT22;1649;53.672;10.064;2022-12-18T09:17:48;-2.70;99.90
3275;DHT22;1649;53.672;10.064;2022-12-18T09:20:17;-2.50;99.90
3275;DHT22;1649;53.672;10.064;2022-12-18T09:22:42;-2.50;99.90
3275;DHT22;1649;53.672;10.064;2022-12-18T09:25:08;-2.40;99.90
3275;DHT22;1649;53.672;10.064;2022-12-18T09:27:34;-2.50;99.90
3275;DHT22;1649;53.672;10.064;2022-12-18T09:30:00;-2.40;99.90
3275;DHT22;1649;53.672;10.064;2022-12-18T09:32:26;-2.40;99.90
3275;DHT22;1649;53.672;10.064;2022-12-18T09:34:51;-2.50;99.90
3275;DHT22;1649;53.672;10.064;2022-12-18T09:37:17;-2.30;99.90
3275;DHT22;1649;53.672;10.064;2022-12-18T09:39:42;-2.00;99.90
3275;DHT22;1649;53.672;10.064;2022-12-18T09:42:28;-1.80;99.90
3275;DHT22;1649;53.672;10.064;2022-12-18T09:44:54;-1.70;99.90
3275;DHT22;1649;53.672;10.064;2022-12-18T09:47:27;-1.60;99.90
3275;DHT22;1649;53.672;10.064;2022-12-18T09:49:58;-1.80;99.90
3275;DHT22;1649;53.672;10.064;2022-12-18T09:52:37;-1.80;99.90
3275;DHT22;1649;53.672;10.064;2022-12-18T09:55:14;-1.70;99.90
3275;DHT22;1649;53.672;10.064;2022-12-18T09:57:46;-1.70;99.90
3275;DHT22;1649;53.672;10.064;2022-12-18T10:00:21;-1.80;99.90
3275;DHT22;1649;53.672;10.064;2022-12-18T10:02:47;-1.70;99.90
3275;DHT22;1649;53.672;10.064;2022-12-18T10:08:13;-1.90;99.90
3275;DHT22;1649;53.672;10.064;2022-12-18T10:10:43;-2.00;99.90
3275;DHT22;1649;53.672;10.064;2022-12-18T10:21:43;-2.30;99.90
3275;DHT22;1649;53.672;10.064;2022-12-18T10:26:46;-2.00;99.90
3275;DHT22;1649;53.672;10.064;2022-12-18T10:29:14;-2.00;99.90
3275;DHT22;1649;53.672;10.064;2022-12-18T10:31:40;-2.00;99.90
3275;DHT22;1649;53.672;10.064;2022-12-18T10:34:13;-2.10;99.90
3275;DHT22;1649;53.672;10.064;2022-12-18T10:36:38;-2.20;99.90
3275;DHT22;1649;53.672;10.064;2022-12-18T10:39:19;-2.10;99.90
3275;DHT22;1649;53.672;10.064;2022-12-18T10:41:45;-1.90;99.90
3275;DHT22;1649;53.672;10.064;2022-12-18T10:44:12;-1.80;99.90
3275;DHT22;1649;53.672;10.064;2022-12-18T10:46:40;-1.80;99.90
3275;DHT22;1649;53.672;10.064;2022-12-18T10:49:23;-1.70;99.90
3275;DHT22;1649;53.672;10.064;2022-12-18T10:51:49;-1.80;99.90
3275;DHT22;1649;53.672;10.064;2022-12-18T10:54:21;-1.80;99.90
3275;DHT22;1649;53.672;10.064;2022-12-18T10:56:47;-1.70;99.90
3275;DHT22;1649;53.672;10.064;2022-12-18T10:59:15;-1.70;99.90
3275;DHT22;1649;53.672;10.064;2022-12-18T11:01:53;-1.70;99.90
3275;DHT22;1649;53.672;10.064;2022-12-18T11:04:26;-1.40;99.90
3275;DHT22;1649;53.672;10.064;2022-12-18T11:07:00;-1.20;99.90
3275;DHT22;1649;53.672;10.064;2022-12-18T11:09:37;-1.10;99.90
3275;DHT22;1649;53.672;10.064;2022-12-18T11:12:17;-1.10;99.90
3275;DHT22;1649;53.672;10.064;2022-12-18T11:14:48;-1.30;99.90
3275;DHT22;1649;53.672;10.064;2022-12-18T11:17:34;-1.40;99.90
3275;DHT22;1649;53.672;10.064;2022-12-18T11:20:03;-1.50;99.90
3275;DHT22;1649;53.672;10.064;2022-12-18T11:22:32;-1.40;99.90
3275;DHT22;1649;53.672;10.064;2022-12-18T11:25:27;-1.30;99.90
3275;DHT22;1649;53.672;10.064;2022-12-18T11:27:55;-1.40;99.90
3275;DHT22;1649;53.672;10.064;2022-12-18T11:30:23;-1.40;99.90
3275;DHT22;1649;53.672;10.064;2022-12-18T11:32:54;-1.60;99.90
3275;DHT22;1649;53.672;10.064;2022-12-18T11:35:30;-1.60;99.90
3275;DHT22;1649;53.672;10.064;2022-12-18T11:38:05;-1.50;99.90
3275;DHT22;1649;53.672;10.064;2022-12-18T11:40:36;-1.50;99.90
3275;DHT22;1649;53.672;10.064;2022-12-18T11:45:35;-1.50;99.90
3275;DHT22;1649;53.672;10.064;2022-12-18T11:48:14;-1.50;99.90
3275;DHT22;1649;53.672;10.064;2022-12-18T11:50:55;-1.50;99.90
3275;DHT22;1649;53.672;10.064;2022-12-18T11:53:22;-1.60;99.90
3275;DHT22;1649;53.672;10.064;2022-12-18T11:56:00;-1.60;99.90
3275;DHT22;1649;53.672;10.064;2022-12-18T11:58:48;-1.50;99.90
3275;DHT22;1649;53.672;10.064;2022-12-18T12:01:46;-1.60;99.90
3275;DHT22;1649;53.672;10.064;2022-12-18T12:04:17;-1.60;99.90
3275;DHT22;1649;53.672;10.064;2022-12-18T12:15:22;-1.50;99.90
3275;DHT22;1649;53.672;10.064;2022-12-18T12:20:49;-1.50;99.90
3275;DHT22;1649;53.672;10.064;2022-12-18T12:23:39;-1.60;99.90
3275;DHT22;1649;53.672;10.064;2022-12-18T12:26:11;-1.50;99.90
3275;DHT22;1649;53.672;10.064;2022-12-18T12:28:49;-1.40;99.90
3275;DHT22;1649;53.672;10.064;2022-12-18T12:34:09;-1.50;99.90
3275;DHT22;1649;53.672;10.064;2022-12-18T12:37:04;-1.50;99.90
3275;DHT22;1649;53.672;10.064;2022-12-18T12:39:35;-1.50;99.90
3275;DHT22;1649;53.672;10.064;2022-12-18T12:42:04;-1.50;99.90
3275;DHT22;1649;53.672;10.064;2022-12-18T12:44:55;-1.50;99.90
3275;DHT22;1649;53.672;10.064;2022-12-18T12:47:30;-1.70;99.90
3275;DHT22;1649;53.672;10.064;2022-12-18T12:49:59;-1.60;99.90
3275;DHT22;1649;53.672;10.064;2022-12-18T12:52:51;-1.60;99.90
3275;DHT22;1649;53.672;10.064;2022-12-18T12:55:24;-1.60;99.90
3275;DHT22;1649;53.672;10.064;2022-12-18T13:00:39;-1.40;99.90
3275;DHT22;1649;53.672;10.064;2022-12-18T13:03:15;-1.40;99.90
3275;DHT22;1649;53.672;10.064;2022-12-18T13:05:50;-1.40;99.90
3275;DHT22;1649;53.672;10.064;2022-12-18T13:08:31;-1.40;99.90
3275;DHT22;1649;53.672;10.064;2022-12-18T13:11:00;-1.40;99.90
3275;DHT22;1649;53.672;10.064;2022-12-18T13:13:55;-1.40;99.90
3275;DHT22;1649;53.672;10.064;2022-12-18T13:16:23;-1.50;99.90
3275;DHT22;1649;53.672;10.064;2022-12-18T13:18:59;-1.40;99.90
3275;DHT22;1649;53.672;10.064;2022-12-18T13:23:50;-1.40;99.90
3275;DHT22;1649;53.672;10.064;2022-12-18T13:36:44;-1.40;99.90
3275;DHT22;1649;53.672;10.064;2022-12-18T13:41:40;-1.50;99.90
3275;DHT22;1649;53.672;10.064;2022-12-18T13:44:30;-1.60;99.90
3275;DHT22;1649;53.672;10.064;2022-12-18T13:46:57;-1.60;99.90
3275;DHT22;1649;53.672;10.064;2022-12-18T13:49:26;-1.70;99.90
3275;DHT22;1649;53.672;10.064;2022-12-18T13:51:55;-1.90;99.90
3275;DHT22;1649;53.672;10.064;2022-12-18T13:54:33;-2.00;99.90
3275;DHT22;1649;53.672;10.064;2022-12-18T13:57:00;-1.80;99.90
3275;DHT22;1649;53.672;10.064;2022-12-18T13:59:39;-2.10;99.90
3275;DHT22;1649;53.672;10.064;2022-12-18T14:02:16;-2.10;99.90
3275;DHT22;1649;53.672;10.064;2022-12-18T14:04:45;-2.20;99.90
3275;DHT22;1649;53.672;10.064;2022-12-18T14:07:17;-2.20;99.90
3275;DHT22;1649;53.672;10.064;2022-12-18T14:09:46;-2.10;99.90
3275;DHT22;1649;53.672;10.064;2022-12-18T14:12:31;-2.10;99.90
3275;DHT22;1649;53.672;10.064;2022-12-18T14:17:58;-2.30;99.90
3275;DHT22;1649;53.672;10.064;2022-12-18T14:20:25;-2.30;99.90
3275;DHT22;1649;53.672;10.064;2022-12-18T14:22:51;-2.30;99.90
3275;DHT22;1649;53.672;10.064;2022-12-18T14:28:30;-2.30;99.90
3275;DHT22;1649;53.672;10.064;2022-12-18T14:30:42;-2.40;99.90
3275;DHT22;1649;53.672;10.064;2022-12-18T14:33:09;-2.40;99.90
3275;DHT22;1649;53.672;10.064;2022-12-18T14:36:13;-2.40;99.90
3275;DHT22;1649;53.672;10.064;2022-12-18T14:38:36;-2.40;99.90
3275;DHT22;1649;53.672;10.064;2022-12-18T14:41:16;-2.50;99.90
3275;DHT22;1649;53.672;10.064;2022-12-18T14:43:44;-2.60;99.90
3275;DHT22;1649;53.672;10.064;2022-12-18T14:48:58;-2.60;99.90
3275;DHT22;1649;53.672;10.064;2022-12-18T14:51:26;-2.70;99.90
3275;DHT22;1649;53.672;10.064;2022-12-18T14:53:57;-2.60;99.90
3275;DHT22;1649;53.672;10.064;2022-12-18T14:56:47;-2.70;99.90
3275;DHT22;1649;53.672;10.064;2022-12-18T14:59:15;-2.70;99.90
3275;DHT22;1649;53.672;10.064;2022-12-18T15:04:26;-2.80;99.90
3275;DHT22;1649;53.672;10.064;2022-12-18T15:07:07;-2.90;99.90
3275;DHT22;1649;53.672;10.064;2022-12-18T15:09:34;-2.90;99.90
3275;DHT22;1649;53.672;10.064;2022-12-18T15:12:01;-2.90;99.90
3275;DHT22;1649;53.672;10.064;2022-12-18T15:16:55;-2.90;99.90
3275;DHT22;1649;53.672;10.064;2022-12-18T15:19:22;-3.00;99.90
3275;DHT22;1649;53.672;10.064;2022-12-18T15:21:51;-2.90;99.90
3275;DHT22;1649;53.672;10.064;2022-12-18T15:24:18;-3.00;99.90
3275;DHT22;1649;53.672;10.064;2022-12-18T15:26:45;-3.00;99.90
3275;DHT22;1649;53.672;10.064;2022-12-18T15:29:22;-3.10;99.90
3275;DHT22;1649;53.672;10.064;2022-12-18T15:32:03;-3.10;99.90
3275;DHT22;1649;53.672;10.064;2022-12-18T15:34:29;-3.20;99.90
3275;DHT22;1649;53.672;10.064;2022-12-18T15:36:55;-3.20;99.90
3275;DHT22;1649;53.672;10.064;2022-12-18T15:39:21;-3.30;99.90
3275;DHT22;1649;53.672;10.064;2022-12-18T15:41:47;-3.30;99.90
3275;DHT22;1649;53.672;10.064;2022-12-18T15:44:31;-3.30;99.90
3275;DHT22;1649;53.672;10.064;2022-12-18T15:46:57;-3.40;99.90
3275;DHT22;1649;53.672;10.064;2022-12-18T15:49:23;-3.30;99.90
3275;DHT22;1649;53.672;10.064;2022-12-18T15:51:52;-3.40;99.90
3275;DHT22;1649;53.672;10.064;2022-12-18T15:54:19;-3.40;99.90
3275;DHT22;1649;53.672;10.064;2022-12-18T15:57:04;-3.40;99.90
3275;DHT22;1649;53.672;10.064;2022-12-18T15:59:48;-3.40;99.90
3275;DHT22;1649;53.672;10.064;2022-12-18T16:02:17;-3.40;99.90
3275;DHT22;1649;53.672;10.064;2022-12-18T16:04:43;-3.40;99.90
3275;DHT22;1649;53.672;10.064;2022-12-18T16:07:09;-3.50;99.90
3275;DHT22;1649;53.672;10.064;2022-12-18T16:09:35;-3.50;99.90
3275;DHT22;1649;53.672;10.064;2022-12-18T16:12:00;-3.50;99.90
3275;DHT22;1649;53.672;10.064;2022-12-18T16:14:28;-3.50;99.90
3275;DHT22;1649;53.672;10.064;2022-12-18T16:17:02;-3.60;99.90
3275;DHT22;1649;53.672;10.064;2022-12-18T16:19:29;-3.60;99.90
3275;DHT22;1649;53.672;10.064;2022-12-18T16:21:56;-3.60;99.90
3275;DHT22;1649;53.672;10.064;2022-12-18T16:24:24;-3.60;99.90
3275;DHT22;1649;53.672;10.064;2022-12-18T16:26:51;-3.60;99.90
3275;DHT22;1649;53.672;10.064;2022-12-18T16:29:17;-3.60;99.90
3275;DHT22;1649;53.672;10.064;2022-12-18T16:31:43;-3.60;99.90
3275;DHT22;1649;53.672;10.064;2022-12-18T16:34:27;-3.60;99.90
3275;DHT22;1649;53.672;10.064;2022-12-18T16:37:13;-3.70;99.90
3275;DHT22;1649;53.672;10.064;2022-12-18T16:39:40;-3.70;99.90
3275;DHT22;1649;53.672;10.064;2022-12-18T16:42:14;-3.70;99.90
3275;DHT22;1649;53.672;10.064;2022-12-18T16:44:42;-3.70;99.90
3275;DHT22;1649;53.672;10.064;2022-12-18T16:47:08;-3.70;99.90
3275;DHT22;1649;53.672;10.064;2022-12-18T16:49:33;-3.70;99.90
3275;DHT22;1649;53.672;10.064;2022-12-18T16:52:00;-3.70;99.90
3275;DHT22;1649;53.672;10.064;2022-12-18T16:54:26;-3.70;99.90
3275;DHT22;1649;53.672;10.064;2022-12-18T16:56:54;-3.70;99.90
3275;DHT22;1649;53.672;10.064;2022-12-18T16:59:20;-3.70;99.90
3275;DHT22;1649;53.672;10.064;2022-12-18T17:01:46;-3.70;99.90
3275;DHT22;1649;53.672;10.064;2022-12-18T17:04:11;-3.70;99.90
3275;DHT22;1649;53.672;10.064;2022-12-18T17:06:42;-3.70;99.90
3275;DHT22;1649;53.672;10.064;2022-12-18T17:09:11;-3.70;99.90
3275;DHT22;1649;53.672;10.064;2022-12-18T17:11:38;-3.70;99.90
3275;DHT22;1649;53.672;10.064;2022-12-18T17:14:14;-3.70;99.90
3275;DHT22;1649;53.672;10.064;2022-12-18T17:16:40;-3.70;99.90
3275;DHT22;1649;53.672;10.064;2022-12-18T17:19:05;-3.70;99.90